Time;durP1;ratioP1;P1;durP2;ratioP2;P2;SDS_P1;SDS_P2;PMS_P1;PMS_P2;Temp;Humidity;BMP_temperature;BMP_pressure;BME280_temperature;BME280_humidity;BME280_pressure;Samples;Min_cycle;Max_cycle;Signal;HPM_P1;HPM_P2
2023/06/24 00:02:23;;;;;;;19.13;3.20;;;;;;;;;;5028265;28;20029;-46
2023/06/24 00:04:54;;;;;;;18.10;3.70;;;;;;;;;;5027525;28;20033;-47
2023/06/24 00:07:22;;;;;;;15.65;3.30;;;;;;;;;;5029640;28;20038;-51
2023/06/24 00:09:49;;;;;;;21.77;3.55;;;;;;;;;;5009712;28;20116;-47
2023/06/24 00:12:18;;;;;;;19.88;3.38;;;;;;;;;;5030432;28;20794;-47
2023/06/24 00:14:46;;;;;;;15.75;4.13;;;;;;;;;;5026704;28;20052;-47
2023/06/24 00:17:16;;;;;;;17.30;3.97;;;;;;;;;;5029052;28;20029;-48
2023/06/24 00:19:46;;;;;;;16.20;3.58;;;;;;;;;;5025826;28;20045;-46
2023/06/24 00:22:14;;;;;;;26.83;3.78;;;;;;;;;;5028048;28;20074;-51
2023/06/24 00:24:42;;;;;;;22.88;3.88;;;;;;;;;;5028578;28;20026;-46
2023/06/24 00:27:10;;;;;;;20.95;3.70;;;;;;;;;;5027927;28;20483;-45
2023/06/24 00:29:37;;;;;;;13.90;3.30;;;;;;;;;;4994722;28;20044;-46
2023/06/24 00:32:04;;;;;;;15.32;3.17;;;;;;;;;;5028452;28;20025;-46
2023/06/24 00:34:31;;;;;;;20.85;4.20;;;;;;;;;;5026530;28;20029;-45
2023/06/24 00:36:58;;;;;;;14.43;3.50;;;;;;;;;;5028151;28;20057;-46
2023/06/24 00:39:25;;;;;;;14.73;3.38;;;;;;;;;;5030692;28;20438;-46
2023/06/24 00:41:52;;;;;;;10.25;3.58;;;;;;;;;;5031064;28;20036;-45
2023/06/24 00:44:20;;;;;;;14.77;3.45;;;;;;;;;;5033362;28;20050;-46
2023/06/24 00:46:47;;;;;;;15.27;3.90;;;;;;;;;;5018733;28;20033;-45
2023/06/24 00:49:15;;;;;;;15.23;3.35;;;;;;;;;;5034225;28;20108;-45
2023/06/24 00:51:50;;;;;;;19.88;4.20;;;;;;;;;;5032523;28;20073;-46
2023/06/24 00:54:17;;;;;;;19.98;3.08;;;;;;;;;;5015472;28;20030;-45
2023/06/24 00:56:45;;;;;;;13.85;3.45;;;;;;;;;;5033727;28;20022;-45
2023/06/24 00:59:14;;;;;;;12.00;3.65;;;;;;;;;;5034172;28;20037;-46
2023/06/24 01:01:42;;;;;;;21.52;4.82;;;;;;;;;;5016373;28;20380;-45
2023/06/24 01:04:09;;;;;;;31.00;6.78;;;;;;;;;;5033992;28;20060;-47
2023/06/24 01:06:43;;;;;;;39.53;9.15;;;;;;;;;;5034021;28;20060;-45
2023/06/24 01:09:10;;;;;;;40.75;10.30;;;;;;;;;;5033992;28;20057;-45
2023/06/24 01:11:37;;;;;;;49.90;13.07;;;;;;;;;;5025095;28;20033;-45
2023/06/24 01:14:04;;;;;;;60.63;14.82;;;;;;;;;;5021361;28;20041;-45
2023/06/24 01:16:38;;;;;;;64.70;15.80;;;;;;;;;;5033809;28;20120;-45
2023/06/24 01:19:14;;;;;;;59.50;15.18;;;;;;;;;;5033720;28;20040;-46
2023/06/24 01:21:55;;;;;;;70.97;17.48;;;;;;;;;;5033287;28;20522;-45
2023/06/24 01:24:30;;;;;;;71.53;17.70;;;;;;;;;;5033313;28;20087;-45
2023/06/24 01:27:09;;;;;;;60.88;17.25;;;;;;;;;;5033548;28;20021;-45
2023/06/24 01:29:54;;;;;;;67.55;18.10;;;;;;;;;;5032008;28;20368;-44
2023/06/24 01:32:36;;;;;;;54.05;16.08;;;;;;;;;;5033162;28;20040;-45
2023/06/24 01:35:09;;;;;;;57.25;16.10;;;;;;;;;;5033359;28;20507;-45
2023/06/24 01:37:38;;;;;;;53.35;15.68;;;;;;;;;;5024813;28;20113;-47
2023/06/24 01:40:23;;;;;;;60.42;16.65;;;;;;;;;;5025793;28;20040;-46
2023/06/24 01:42:50;;;;;;;60.03;15.60;;;;;;;;;;5031733;28;20021;-45
2023/06/24 01:45:23;;;;;;;48.53;14.18;;;;;;;;;;5029525;28;20052;-45
2023/06/24 01:47:49;;;;;;;;;;;;;;;;;;4997877;28;20068;-46
2023/06/24 01:50:21;;;;;;;45.78;13.88;;;;;;;;;;5012901;28;19919;-46
2023/06/24 01:52:49;;;;;;;64.70;15.40;;;;;;;;;;5031666;28;20033;-46
2023/06/24 01:55:19;;;;;;;47.08;13.35;;;;;;;;;;5030260;28;20033;-48
2023/06/24 01:57:47;;;;;;;45.40;12.80;;;;;;;;;;5031499;28;20751;-46
2023/06/24 02:00:14;;;;;;;49.33;14.13;;;;;;;;;;5029367;28;20077;-47
2023/06/24 02:02:42;;;;;;;49.60;14.00;;;;;;;;;;5013113;28;20037;-47
2023/06/24 02:05:10;;;;;;;51.25;13.77;;;;;;;;;;5027930;28;20029;-45
2023/06/24 02:07:38;;;;;;;40.08;12.38;;;;;;;;;;5030822;28;20037;-47
2023/06/24 02:10:06;;;;;;;39.60;12.57;;;;;;;;;;5028055;28;20156;-45
2023/06/24 02:12:34;;;;;;;42.42;12.77;;;;;;;;;;5029866;28;20488;-46
2023/06/24 02:15:03;;;;;;;43.75;13.20;;;;;;;;;;5031075;28;20025;-45
2023/06/24 02:17:30;;;;;;;39.58;12.15;;;;;;;;;;5013394;28;20030;-48
2023/06/24 02:19:58;;;;;;;39.83;12.20;;;;;;;;;;5031114;28;20128;-45
2023/06/24 02:22:25;;;;;;;37.17;11.88;;;;;;;;;;5031127;28;20550;-46
2023/06/24 02:24:53;;;;;;;40.45;12.70;;;;;;;;;;5030996;28;20117;-46
2023/06/24 02:27:21;;;;;;;37.63;12.82;;;;;;;;;;5031266;28;20029;-47
2023/06/24 02:29:48;;;;;;;36.10;11.45;;;;;;;;;;5031159;28;20108;-50
2023/06/24 02:32:15;;;;;;;35.67;11.65;;;;;;;;;;5025843;28;20025;-47
2023/06/24 02:34:42;;;;;;;40.67;11.90;;;;;;;;;;5008885;28;20069;-46
2023/06/24 02:37:10;;;;;;;40.25;12.25;;;;;;;;;;5031023;28;20049;-45
2023/06/24 02:39:43;;;;;;;40.95;11.88;;;;;;;;;;5031703;28;20037;-46
2023/06/24 02:42:11;;;;;;;33.10;10.65;;;;;;;;;;5031401;28;20566;-46
2023/06/24 02:44:42;;;;;;;36.30;11.43;;;;;;;;;;5031005;28;20049;-50
2023/06/24 02:47:10;;;;;;;33.67;11.13;;;;;;;;;;5030610;28;20458;-45
2023/06/24 02:49:38;;;;;;;38.42;10.50;;;;;;;;;;5029821;28;20032;-44
2023/06/24 02:52:06;;;;;;;32.17;9.95;;;;;;;;;;5033206;28;20030;-44
2023/06/24 02:54:34;;;;;;;28.83;10.05;;;;;;;;;;5030190;28;20033;-44
2023/06/24 02:57:01;;;;;;;35.53;10.15;;;;;;;;;;5028023;28;20083;-44
2023/06/24 02:59:28;;;;;;;30.70;9.07;;;;;;;;;;5030019;28;20049;-44
2023/06/24 03:01:56;;;;;;;31.40;9.55;;;;;;;;;;5028941;28;20510;-44
2023/06/24 03:04:23;;;;;;;26.95;10.15;;;;;;;;;;5027492;28;20072;-44
2023/06/24 03:06:50;;;;;;;26.45;9.10;;;;;;;;;;5029874;28;20087;-44
2023/06/24 03:09:17;;;;;;;27.17;9.27;;;;;;;;;;5029462;28;20054;-44
2023/06/24 03:11:45;;;;;;;29.52;9.27;;;;;;;;;;5029800;28;20040;-44
2023/06/24 03:14:12;;;;;;;24.45;9.07;;;;;;;;;;5029691;28;20551;-44
2023/06/24 03:16:39;;;;;;;25.98;8.75;;;;;;;;;;5029668;28;20029;-45
2023/06/24 03:19:06;;;;;;;27.67;9.15;;;;;;;;;;5029754;28;20068;-45
2023/06/24 03:21:33;;;;;;;23.65;8.80;;;;;;;;;;5026965;28;20545;-43
2023/06/24 03:24:00;;;;;;;26.50;8.48;;;;;;;;;;5025466;28;20049;-43
2023/06/24 03:26:37;;;;;;;21.45;7.93;;;;;;;;;;5030703;28;20412;-44
2023/06/24 03:29:04;;;;;;;25.05;8.80;;;;;;;;;;5031431;28;20043;-43
2023/06/24 03:31:31;;;;;;;22.70;7.75;;;;;;;;;;5031223;28;20025;-43
2023/06/24 03:33:58;;;;;;;23.20;8.43;;;;;;;;;;5031375;28;20483;-44
2023/06/24 03:36:25;;;;;;;21.25;8.18;;;;;;;;;;5030976;28;20127;-44
2023/06/24 03:38:52;;;;;;;20.73;7.22;;;;;;;;;;5030869;28;20033;-43
2023/06/24 03:41:19;;;;;;;18.73;7.43;;;;;;;;;;5030803;28;20033;-45
2023/06/24 03:43:47;;;;;;;19.92;7.75;;;;;;;;;;5031353;28;20029;-43
2023/06/24 03:46:14;;;;;;;19.52;7.88;;;;;;;;;;5031185;28;20053;-44
2023/06/24 03:48:41;;;;;;;20.10;8.02;;;;;;;;;;5013277;28;20483;-44
2023/06/24 03:51:08;;;;;;;20.90;7.15;;;;;;;;;;5031207;28;20101;-43
2023/06/24 03:53:35;;;;;;;19.05;7.57;;;;;;;;;;5031184;28;20488;-43
2023/06/24 03:56:02;;;;;;;15.65;6.80;;;;;;;;;;5031161;28;20028;-44
2023/06/24 03:58:29;;;;;;;18.20;7.00;;;;;;;;;;5031120;28;20025;-43
2023/06/24 04:00:56;;;;;;;18.83;7.25;;;;;;;;;;5013332;28;20079;-43
2023/06/24 04:03:28;;;;;;;16.42;6.55;;;;;;;;;;5031208;28;20468;-43
2023/06/24 04:05:56;;;;;;;17.88;6.85;;;;;;;;;;5031014;28;20411;-43
2023/06/24 04:08:25;;;;;;;16.25;6.60;;;;;;;;;;5030887;28;20036;-44
2023/06/24 04:10:52;;;;;;;19.15;6.97;;;;;;;;;;5013307;28;20543;-43
2023/06/24 04:13:19;;;;;;;18.83;6.50;;;;;;;;;;5029921;28;20029;-44
2023/06/24 04:15:46;;;;;;;19.67;6.97;;;;;;;;;;5034250;28;20037;-43
2023/06/24 04:18:14;;;;;;;16.45;6.13;;;;;;;;;;5031702;28;20029;-43
2023/06/24 04:20:41;;;;;;;17.27;6.10;;;;;;;;;;5034717;28;20037;-43
2023/06/24 04:23:10;;;;;;;15.45;5.90;;;;;;;;;;5034851;28;20045;-43
2023/06/24 04:25:37;;;;;;;15.07;5.82;;;;;;;;;;5034396;28;20036;-43
2023/06/24 04:28:04;;;;;;;16.92;6.72;;;;;;;;;;5034613;28;20040;-43
2023/06/24 04:30:32;;;;;;;14.93;6.72;;;;;;;;;;5034586;28;20033;-43
2023/06/24 04:32:59;;;;;;;15.05;5.95;;;;;;;;;;5034317;28;20048;-43
2023/06/24 04:35:26;;;;;;;15.50;6.28;;;;;;;;;;5016221;28;20399;-44
2023/06/24 04:37:53;;;;;;;14.32;5.90;;;;;;;;;;5032917;28;20701;-43
2023/06/24 04:40:20;;;;;;;14.45;5.93;;;;;;;;;;5033489;28;20091;-43
2023/06/24 04:42:47;;;;;;;13.73;5.60;;;;;;;;;;5033636;28;20483;-43
2023/06/24 04:45:14;;;;;;;11.35;5.10;;;;;;;;;;5033668;28;20788;-44
2023/06/24 04:47:42;;;;;;;14.48;5.70;;;;;;;;;;5033717;28;20033;-43
2023/06/24 04:50:12;;;;;;;12.55;5.32;;;;;;;;;;5031169;28;20025;-44
2023/06/24 04:52:39;;;;;;;15.40;6.10;;;;;;;;;;5034314;28;20105;-43
2023/06/24 04:55:07;;;;;;;14.90;5.75;;;;;;;;;;5016340;28;20022;-43
2023/06/24 04:57:37;;;;;;;13.85;5.93;;;;;;;;;;5034106;28;20017;-44
2023/06/24 05:00:04;;;;;;;13.57;5.43;;;;;;;;;;5033990;28;20072;-43
2023/06/24 05:02:31;;;;;;;13.10;5.10;;;;;;;;;;5034052;28;20078;-44
2023/06/24 05:04:59;;;;;;;11.68;5.10;;;;;;;;;;5034030;28;20028;-43
2023/06/24 05:07:26;;;;;;;11.63;5.43;;;;;;;;;;5015998;28;20033;-44
2023/06/24 05:09:53;;;;;;;13.05;5.63;;;;;;;;;;5034085;28;20136;-43
2023/06/24 05:12:20;;;;;;;11.93;5.00;;;;;;;;;;5034000;28;20119;-43
2023/06/24 05:14:51;;;;;;;11.45;4.88;;;;;;;;;;5033944;28;20506;-43
2023/06/24 05:17:19;;;;;;;10.37;4.77;;;;;;;;;;5033560;28;20384;-43
2023/06/24 05:19:46;;;;;;;13.60;5.28;;;;;;;;;;5033774;28;20037;-43
2023/06/24 05:22:13;;;;;;;14.27;4.78;;;;;;;;;;5033854;28;20024;-44
2023/06/24 05:24:41;;;;;;;11.00;4.85;;;;;;;;;;5033305;28;20037;-43
2023/06/24 05:27:08;;;;;;;9.38;4.25;;;;;;;;;;5033505;28;20030;-43
2023/06/24 05:29:35;;;;;;;12.25;4.85;;;;;;;;;;5033720;28;20040;-43
2023/06/24 05:32:03;;;;;;;10.88;4.78;;;;;;;;;;5033547;28;20075;-43
2023/06/24 05:34:31;;;;;;;9.93;4.63;;;;;;;;;;5033406;28;20361;-44
2023/06/24 05:36:58;;;;;;;9.25;4.20;;;;;;;;;;5033387;28;20025;-43
2023/06/24 05:39:25;;;;;;;11.20;4.78;;;;;;;;;;5033322;28;20030;-43
2023/06/24 05:41:52;;;;;;;9.85;5.15;;;;;;;;;;5015652;28;20017;-43
2023/06/24 05:44:19;;;;;;;9.18;4.05;;;;;;;;;;5033204;28;20030;-43
2023/06/24 05:46:46;;;;;;;7.18;4.05;;;;;;;;;;5033102;28;20104;-43
2023/06/24 05:49:13;;;;;;;8.98;4.50;;;;;;;;;;5033222;28;20029;-43
2023/06/24 05:51:40;;;;;;;10.85;4.43;;;;;;;;;;5033225;28;20100;-44
2023/06/24 05:54:10;;;;;;;9.23;4.20;;;;;;;;;;5019587;28;20034;-43
2023/06/24 05:56:38;;;;;;;12.50;4.93;;;;;;;;;;5013262;28;20650;-43
2023/06/24 05:59:05;;;;;;;8.27;4.13;;;;;;;;;;5013286;28;20025;-44
2023/06/24 06:01:32;;;;;;;9.45;3.95;;;;;;;;;;5026537;28;20036;-43
2023/06/24 06:03:59;;;;;;;9.20;4.03;;;;;;;;;;5052951;28;20029;-43
2023/06/24 06:06:26;;;;;;;8.32;3.90;;;;;;;;;;5052750;28;20506;-43
2023/06/24 06:08:53;;;;;;;9.40;4.05;;;;;;;;;;5052723;28;20028;-43
2023/06/24 06:11:20;;;;;;;10.32;4.13;;;;;;;;;;5052559;28;20390;-44
2023/06/24 06:13:47;;;;;;;9.68;4.07;;;;;;;;;;5034726;28;20025;-43
2023/06/24 06:16:13;;;;;;;8.10;3.72;;;;;;;;;;5052599;28;20078;-43
2023/06/24 06:18:40;;;;;;;7.50;3.90;;;;;;;;;;5052625;28;20033;-43
2023/06/24 06:21:07;;;;;;;10.18;4.18;;;;;;;;;;5052396;28;20025;-43
2023/06/24 06:23:34;;;;;;;8.73;3.78;;;;;;;;;;5052506;28;20383;-43
2023/06/24 06:26:02;;;;;;;7.53;3.40;;;;;;;;;;5052388;28;20364;-43
2023/06/24 06:28:29;;;;;;;7.90;3.70;;;;;;;;;;5052039;28;20091;-43
2023/06/24 06:30:57;;;;;;;8.57;3.78;;;;;;;;;;5052439;28;20052;-43
2023/06/24 06:33:24;;;;;;;7.18;3.78;;;;;;;;;;5052395;28;20025;-44
2023/06/24 06:35:51;;;;;;;8.85;3.78;;;;;;;;;;5052095;28;20025;-43
2023/06/24 06:38:18;;;;;;;6.43;3.05;;;;;;;;;;5033638;28;20470;-43
2023/06/24 06:40:45;;;;;;;7.57;3.30;;;;;;;;;;5049781;28;20032;-43
2023/06/24 06:43:12;;;;;;;6.40;3.10;;;;;;;;;;5032335;28;20071;-43
2023/06/24 06:45:39;;;;;;;7.07;3.67;;;;;;;;;;5032090;28;20192;-43
2023/06/24 06:48:07;;;;;;;8.18;3.17;;;;;;;;;;5032007;28;20364;-44
2023/06/24 06:50:34;;;;;;;6.88;3.35;;;;;;;;;;5032115;28;20852;-43
2023/06/24 06:53:01;;;;;;;6.70;3.42;;;;;;;;;;5032132;28;20018;-43
2023/06/24 06:55:28;;;;;;;7.22;3.08;;;;;;;;;;5031982;28;20100;-43
2023/06/24 06:57:55;;;;;;;7.60;3.60;;;;;;;;;;5031965;28;20029;-43
2023/06/24 07:00:22;;;;;;;7.22;3.33;;;;;;;;;;5031939;28;20032;-43
2023/06/24 07:02:49;;;;;;;6.38;3.10;;;;;;;;;;5031787;28;20072;-43
2023/06/24 07:05:16;;;;;;;7.50;3.00;;;;;;;;;;5031782;28;20108;-43
2023/06/24 07:07:45;;;;;;;6.25;2.70;;;;;;;;;;5031848;28;20029;-43
2023/06/24 07:10:12;;;;;;;6.15;3.03;;;;;;;;;;5031724;28;20029;-44
2023/06/24 07:12:40;;;;;;;8.68;3.25;;;;;;;;;;5031824;28;20029;-43
2023/06/24 07:15:07;;;;;;;5.50;2.85;;;;;;;;;;5031634;28;20390;-43
2023/06/24 07:17:34;;;;;;;6.32;3.00;;;;;;;;;;5031418;28;20022;-43
2023/06/24 07:20:01;;;;;;;6.20;2.72;;;;;;;;;;5013833;28;20030;-43
2023/06/24 07:22:30;;;;;;;6.65;3.20;;;;;;;;;;5031698;28;20017;-43
2023/06/24 07:24:57;;;;;;;5.85;2.97;;;;;;;;;;5031541;28;20040;-43
2023/06/24 07:27:24;;;;;;;5.65;3.10;;;;;;;;;;5031467;28;20124;-43
2023/06/24 07:29:51;;;;;;;5.57;2.78;;;;;;;;;;5013672;28;20087;-43
2023/06/24 07:32:18;;;;;;;6.47;2.92;;;;;;;;;;5031567;28;20021;-44
2023/06/24 07:34:45;;;;;;;6.53;3.05;;;;;;;;;;5031536;28;20025;-43
2023/06/24 07:37:12;;;;;;;6.18;2.88;;;;;;;;;;5031498;28;20018;-43
2023/06/24 07:39:39;;;;;;;5.43;2.67;;;;;;;;;;5031399;28;20041;-43
2023/06/24 07:42:06;;;;;;;6.50;2.90;;;;;;;;;;5031442;28;20030;-43
2023/06/24 07:44:33;;;;;;;5.50;2.78;;;;;;;;;;5013353;28;20058;-43
2023/06/24 07:47:00;;;;;;;5.00;2.58;;;;;;;;;;5031425;28;20037;-43
2023/06/24 07:49:27;;;;;;;6.10;2.65;;;;;;;;;;5034969;28;20029;-43
2023/06/24 07:51:54;;;;;;;4.38;2.42;;;;;;;;;;5035567;28;20025;-43
2023/06/24 07:54:21;;;;;;;4.90;2.55;;;;;;;;;;5035323;28;20022;-43
2023/06/24 07:56:48;;;;;;;6.25;2.78;;;;;;;;;;5035331;28;20017;-43
2023/06/24 07:59:15;;;;;;;5.05;2.58;;;;;;;;;;5017466;28;20044;-43
2023/06/24 08:01:42;;;;;;;5.15;2.60;;;;;;;;;;5035260;28;20079;-43
2023/06/24 08:04:09;;;;;;;5.28;2.50;;;;;;;;;;5035078;28;20040;-43
2023/06/24 08:06:36;;;;;;;5.93;2.60;;;;;;;;;;5035113;28;20100;-43
2023/06/24 08:09:03;;;;;;;5.07;2.70;;;;;;;;;;5035159;28;20103;-43
2023/06/24 08:11:30;;;;;;;4.97;2.40;;;;;;;;;;5035134;28;20056;-43
2023/06/24 08:13:57;;;;;;;4.03;2.30;;;;;;;;;;5035037;28;20105;-43
2023/06/24 08:16:24;;;;;;;3.72;2.35;;;;;;;;;;5034955;28;20029;-43
2023/06/24 08:18:51;;;;;;;3.67;2.35;;;;;;;;;;5034898;28;20505;-43
2023/06/24 08:21:18;;;;;;;4.45;2.03;;;;;;;;;;5034894;28;20430;-44
2023/06/24 08:23:45;;;;;;;3.67;2.40;;;;;;;;;;5034910;28;20510;-43
2023/06/24 08:26:12;;;;;;;5.22;2.08;;;;;;;;;;5034835;28;20032;-43
2023/06/24 08:28:38;;;;;;;4.35;2.17;;;;;;;;;;5034804;28;20029;-43
2023/06/24 08:31:05;;;;;;;6.60;2.30;;;;;;;;;;5034719;28;20029;-43
2023/06/24 08:33:32;;;;;;;6.28;2.20;;;;;;;;;;5034499;28;20037;-44
2023/06/24 08:35:59;;;;;;;5.35;2.20;;;;;;;;;;5034520;28;20033;-44
2023/06/24 08:38:26;;;;;;;4.45;1.95;;;;;;;;;;5034602;28;20475;-43
2023/06/24 08:40:53;;;;;;;4.30;2.10;;;;;;;;;;5034536;28;20080;-44
2023/06/24 08:43:20;;;;;;;3.72;2.28;;;;;;;;;;5034619;28;20025;-43
2023/06/24 08:45:48;;;;;;;4.45;2.00;;;;;;;;;;5034355;28;20420;-44
2023/06/24 08:48:15;;;;;;;3.45;1.90;;;;;;;;;;5034293;28;20021;-43
2023/06/24 08:50:46;;;;;;;3.53;1.95;;;;;;;;;;5034374;28;20065;-43
2023/06/24 08:53:13;;;;;;;3.90;2.17;;;;;;;;;;5034250;28;20112;-45
2023/06/24 08:55:41;;;;;;;4.22;2.42;;;;;;;;;;5034258;28;20028;-43
2023/06/24 08:58:08;;;;;;;5.07;2.30;;;;;;;;;;5034132;28;20052;-43
2023/06/24 09:00:36;;;;;;;3.72;1.88;;;;;;;;;;5015619;28;20072;-44
2023/06/24 09:03:03;;;;;;;4.85;1.83;;;;;;;;;;5034154;28;20021;-43
2023/06/24 09:05:30;;;;;;;3.35;1.98;;;;;;;;;;5034220;28;20053;-43
2023/06/24 09:07:57;;;;;;;2.95;1.80;;;;;;;;;;5033992;28;20025;-43
2023/06/24 09:10:34;;;;;;;4.60;2.20;;;;;;;;;;5016146;28;20034;-44
2023/06/24 09:13:02;;;;;;;4.25;2.00;;;;;;;;;;5033928;28;20021;-43
2023/06/24 09:15:35;;;;;;;3.80;2.10;;;;;;;;;;5033760;28;20029;-44
2023/06/24 09:18:03;;;;;;;3.78;1.80;;;;;;;;;;5033883;28;20018;-43
2023/06/24 09:20:31;;;;;;;3.33;1.90;;;;;;;;;;5015991;28;20033;-44
2023/06/24 09:23:01;;;;;;;4.20;2.10;;;;;;;;;;5033876;28;20040;-43
2023/06/24 09:25:29;;;;;;;4.57;2.00;;;;;;;;;;5033814;28;20104;-43
2023/06/24 09:27:55;;;;;;;4.30;1.90;;;;;;;;;;5033462;28;20079;-43
2023/06/24 09:30:25;;;;;;;4.53;2.30;;;;;;;;;;5033683;28;20061;-46
2023/06/24 09:32:53;;;;;;;4.50;1.98;;;;;;;;;;5033705;28;20434;-43
2023/06/24 09:35:21;;;;;;;4.18;2.30;;;;;;;;;;5033440;28;20048;-43
2023/06/24 09:37:55;;;;;;;3.08;1.90;;;;;;;;;;5033513;28;20026;-44
2023/06/24 09:40:23;;;;;;;3.40;2.10;;;;;;;;;;5033464;28;20028;-43
2023/06/24 09:42:51;;;;;;;3.25;1.90;;;;;;;;;;5033442;28;20444;-43
2023/06/24 09:45:25;;;;;;;3.72;1.92;;;;;;;;;;5033223;28;20041;-43
2023/06/24 09:47:53;;;;;;;2.88;1.80;;;;;;;;;;5033108;28;20025;-43
2023/06/24 09:50:20;;;;;;;2.47;1.77;;;;;;;;;;5033254;28;20396;-44
2023/06/24 09:52:48;;;;;;;3.05;1.80;;;;;;;;;;5033337;28;20429;-43
2023/06/24 09:55:16;;;;;;;3.50;1.80;;;;;;;;;;5033121;28;20021;-43
2023/06/24 09:57:47;;;;;;;3.95;2.00;;;;;;;;;;5033133;28;20032;-43
2023/06/24 10:00:15;;;;;;;3.55;2.25;;;;;;;;;;5032984;28;20061;-43
2023/06/24 10:02:42;;;;;;;4.57;2.30;;;;;;;;;;5033055;28;20030;-43
2023/06/24 10:05:09;;;;;;;4.65;1.77;;;;;;;;;;5033048;28;20591;-43
2023/06/24 10:07:37;;;;;;;2.90;1.75;;;;;;;;;;5032884;28;20064;-43
2023/06/24 10:10:04;;;;;;;3.05;1.80;;;;;;;;;;5024384;28;20064;-43
2023/06/24 10:12:31;;;;;;;3.92;1.90;;;;;;;;;;5031734;28;20025;-43
2023/06/24 10:14:59;;;;;;;2.92;1.85;;;;;;;;;;5032696;28;20026;-43
2023/06/24 10:17:26;;;;;;;3.30;1.90;;;;;;;;;;5032670;28;20025;-43
2023/06/24 10:19:57;;;;;;;2.85;1.77;;;;;;;;;;5032747;28;20037;-44
2023/06/24 10:22:25;;;;;;;3.33;2.08;;;;;;;;;;5032757;28;20026;-44
2023/06/24 10:24:53;;;;;;;3.60;2.10;;;;;;;;;;5032509;28;20030;-44
2023/06/24 10:27:26;;;;;;;2.65;1.75;;;;;;;;;;5032317;28;20018;-44
2023/06/24 10:29:58;;;;;;;3.15;2.00;;;;;;;;;;5032728;28;20103;-44
2023/06/24 10:32:25;;;;;;;3.70;1.95;;;;;;;;;;5032463;28;20029;-44
2023/06/24 10:34:58;;;;;;;3.13;1.90;;;;;;;;;;5032386;28;20075;-44
2023/06/24 10:37:26;;;;;;;3.50;1.85;;;;;;;;;;5032261;28;20029;-44
2023/06/24 10:40:00;;;;;;;3.20;1.80;;;;;;;;;;5032341;28;20029;-44
2023/06/24 10:42:35;;;;;;;3.30;1.95;;;;;;;;;;5032275;28;20075;-43
2023/06/24 10:45:02;;;;;;;3.40;1.85;;;;;;;;;;5032071;28;20057;-43
2023/06/24 10:47:30;;;;;;;3.17;1.90;;;;;;;;;;5032094;28;20410;-44
2023/06/24 10:49:57;;;;;;;4.40;1.80;;;;;;;;;;5032160;28;20487;-43
2023/06/24 10:52:24;;;;;;;2.42;1.70;;;;;;;;;;5032186;28;20156;-43
2023/06/24 10:54:52;;;;;;;2.90;1.80;;;;;;;;;;5032123;28;20021;-44
2023/06/24 10:57:23;;;;;;;2.08;1.60;;;;;;;;;;5031980;28;20079;-44
2023/06/24 10:59:50;;;;;;;3.00;1.88;;;;;;;;;;5031978;28;20476;-44
2023/06/24 11:02:18;;;;;;;3.13;2.00;;;;;;;;;;5032037;28;20022;-45
2023/06/24 11:04:48;;;;;;;3.65;1.77;;;;;;;;;;5031907;28;20424;-44
2023/06/24 11:07:16;;;;;;;3.25;2.35;;;;;;;;;;5031753;28;20032;-43
2023/06/24 11:09:43;;;;;;;3.72;2.17;;;;;;;;;;5031909;28;20057;-44
2023/06/24 11:12:11;;;;;;;4.72;2.10;;;;;;;;;;5031755;28;20026;-43
2023/06/24 11:14:40;;;;;;;2.83;2.10;;;;;;;;;;5031726;28;20025;-44
2023/06/24 11:17:07;;;;;;;3.17;2.30;;;;;;;;;;5031742;28;20556;-45
2023/06/24 11:19:38;;;;;;;3.33;2.10;;;;;;;;;;5031742;28;20488;-43
2023/06/24 11:22:06;;;;;;;2.95;2.30;;;;;;;;;;5031559;28;20472;-44
2023/06/24 11:24:33;;;;;;;2.55;2.05;;;;;;;;;;5031564;28;20030;-44
2023/06/24 11:27:00;;;;;;;4.50;2.20;;;;;;;;;;5031661;28;20707;-44
2023/06/24 11:29:31;;;;;;;3.15;1.80;;;;;;;;;;5031596;28;20030;-44
2023/06/24 11:31:58;;;;;;;4.63;2.10;;;;;;;;;;5031660;28;20021;-44
2023/06/24 11:34:25;;;;;;;2.75;2.33;;;;;;;;;;5031332;28;20029;-44
2023/06/24 11:36:52;;;;;;;2.90;2.17;;;;;;;;;;5031385;28;20175;-44
2023/06/24 11:39:25;;;;;;;3.70;2.28;;;;;;;;;;5031423;28;20037;-44
2023/06/24 11:41:53;;;;;;;2.65;2.10;;;;;;;;;;5031499;28;20032;-45
2023/06/24 11:44:25;;;;;;;3.30;2.25;;;;;;;;;;5030923;28;20026;-43
2023/06/24 11:46:52;;;;;;;;;;;;;;;;;;5031786;28;20025;-43
2023/06/24 11:49:20;;;;;;;2.97;2.25;;;;;;;;;;5013702;28;19913;-43
2023/06/24 11:51:50;;;;;;;4.45;2.15;;;;;;;;;;5031378;28;20387;-44
2023/06/24 11:54:19;;;;;;;2.92;2.20;;;;;;;;;;5031079;28;20093;-44
2023/06/24 11:56:51;;;;;;;3.08;2.10;;;;;;;;;;5029978;28;20025;-44
2023/06/24 11:59:22;;;;;;;2.95;2.10;;;;;;;;;;5030785;28;20040;-43
2023/06/24 12:01:56;;;;;;;2.78;2.35;;;;;;;;;;5030816;28;20025;-43
2023/06/24 12:04:33;;;;;;;2.90;2.33;;;;;;;;;;5031093;28;20026;-44
2023/06/24 12:07:01;;;;;;;4.57;1.90;;;;;;;;;;5030929;28;20100;-45
2023/06/24 12:09:28;;;;;;;2.85;1.75;;;;;;;;;;5030574;28;20048;-45
2023/06/24 12:11:55;;;;;;;4.07;2.13;;;;;;;;;;5030984;28;20052;-44
2023/06/24 12:14:22;;;;;;;4.32;2.20;;;;;;;;;;5030784;28;20029;-43
2023/06/24 12:16:49;;;;;;;3.00;2.10;;;;;;;;;;5030849;28;20036;-43
2023/06/24 12:19:16;;;;;;;3.63;2.00;;;;;;;;;;5030187;28;20366;-44
2023/06/24 12:21:43;;;;;;;3.80;2.55;;;;;;;;;;5030593;28;20103;-43
2023/06/24 12:24:10;;;;;;;8.60;2.13;;;;;;;;;;5030913;28;20101;-44
2023/06/24 12:26:37;;;;;;;5.80;2.53;;;;;;;;;;5018060;28;20030;-44
2023/06/24 12:29:04;;;;;;;5.05;2.72;;;;;;;;;;5030586;28;20765;-44
2023/06/24 12:31:31;;;;;;;2.70;2.05;;;;;;;;;;5030444;28;20120;-44
2023/06/24 12:33:58;;;;;;;3.53;2.10;;;;;;;;;;5013057;28;20033;-43
2023/06/24 12:36:25;;;;;;;4.32;2.30;;;;;;;;;;5033999;28;20021;-43
2023/06/24 12:38:52;;;;;;;3.83;2.20;;;;;;;;;;5034527;28;20022;-43
2023/06/24 12:41:19;;;;;;;5.72;2.28;;;;;;;;;;5031488;28;20061;-44
2023/06/24 12:43:46;;;;;;;6.88;2.10;;;;;;;;;;5016586;28;20033;-44
2023/06/24 12:46:13;;;;;;;6.15;2.40;;;;;;;;;;5014450;28;20547;-43
2023/06/24 12:48:40;;;;;;;3.72;2.17;;;;;;;;;;5019696;28;20165;-44
2023/06/24 12:51:07;;;;;;;3.97;2.40;;;;;;;;;;5022366;28;20033;-45
2023/06/24 12:53:34;;;;;;;4.22;2.10;;;;;;;;;;5033493;28;20109;-44
2023/06/24 12:56:01;;;;;;;5.15;2.10;;;;;;;;;;5032389;28;20029;-44
2023/06/24 12:58:28;;;;;;;7.35;2.00;;;;;;;;;;4996917;28;20036;-43
2023/06/24 13:00:55;;;;;;;8.30;2.22;;;;;;;;;;5014209;28;20468;-46
2023/06/24 13:03:22;;;;;;;9.55;2.53;;;;;;;;;;5023595;28;20026;-45
2023/06/24 13:05:49;;;;;;;7.93;2.30;;;;;;;;;;5018375;28;20035;-45
2023/06/24 13:08:16;;;;;;;5.55;2.03;;;;;;;;;;5027982;28;20025;-46
2023/06/24 13:10:43;;;;;;;6.70;2.20;;;;;;;;;;5025408;28;20037;-46
2023/06/24 13:13:10;;;;;;;16.15;2.25;;;;;;;;;;5029770;28;20026;-44
2023/06/24 13:15:37;;;;;;;5.20;1.95;;;;;;;;;;5026672;28;20476;-46
2023/06/24 13:18:05;;;;;;;7.38;2.20;;;;;;;;;;5019451;28;20068;-45
2023/06/24 13:20:32;;;;;;;6.22;2.38;;;;;;;;;;5022515;28;20079;-45
2023/06/24 13:22:59;;;;;;;11.00;2.13;;;;;;;;;;5024976;28;20048;-46
2023/06/24 13:25:26;;;;;;;10.30;2.38;;;;;;;;;;5020279;28;20554;-46
2023/06/24 13:27:53;;;;;;;5.80;2.13;;;;;;;;;;5032999;28;20037;-45
2023/06/24 13:30:21;;;;;;;12.25;1.92;;;;;;;;;;5018372;28;20096;-46
2023/06/24 13:32:49;;;;;;;7.28;2.10;;;;;;;;;;5022241;28;20112;-45
2023/06/24 13:35:16;;;;;;;19.02;2.33;;;;;;;;;;5028435;28;20040;-45
2023/06/24 13:37:43;;;;;;;12.35;2.00;;;;;;;;;;5032969;28;20036;-44
2023/06/24 13:40:11;;;;;;;8.15;2.30;;;;;;;;;;5033232;28;20152;-46
2023/06/24 13:42:38;;;;;;;11.65;2.40;;;;;;;;;;5033161;28;20025;-46
2023/06/24 13:45:05;;;;;;;12.70;2.58;;;;;;;;;;5032861;28;20153;-44
2023/06/24 13:47:32;;;;;;;7.05;2.30;;;;;;;;;;5032853;28;20492;-46
2023/06/24 13:49:59;;;;;;;9.07;2.05;;;;;;;;;;5032551;28;20044;-46
2023/06/24 13:52:27;;;;;;;10.35;2.10;;;;;;;;;;5029290;28;20034;-46
2023/06/24 13:54:54;;;;;;;18.83;2.38;;;;;;;;;;5024176;28;20057;-45
2023/06/24 13:57:21;;;;;;;14.85;2.45;;;;;;;;;;5024369;28;20460;-46
2023/06/24 13:59:48;;;;;;;10.75;2.55;;;;;;;;;;5013932;28;20113;-46
2023/06/24 14:02:15;;;;;;;10.80;2.40;;;;;;;;;;5014284;28;20034;-45
2023/06/24 14:04:42;;;;;;;6.30;2.25;;;;;;;;;;5024779;28;20026;-45
2023/06/24 14:07:09;;;;;;;11.23;2.50;;;;;;;;;;5029450;28;20033;-44
2023/06/24 14:09:36;;;;;;;13.98;2.40;;;;;;;;;;5024530;28;20041;-46
2023/06/24 14:12:04;;;;;;;12.20;2.22;;;;;;;;;;5027484;28;20029;-44
2023/06/24 14:14:30;;;;;;;7.40;2.22;;;;;;;;;;5032678;28;20017;-44
2023/06/24 14:16:57;;;;;;;9.30;2.00;;;;;;;;;;5032392;28;20510;-44
2023/06/24 14:19:24;;;;;;;9.48;2.10;;;;;;;;;;5032490;28;20426;-45
2023/06/24 14:21:51;;;;;;;5.60;1.88;;;;;;;;;;5032514;28;20025;-46
2023/06/24 14:24:18;;;;;;;6.35;1.98;;;;;;;;;;5032764;28;20049;-44
2023/06/24 14:26:48;;;;;;;3.78;2.10;;;;;;;;;;5032504;28;20025;-45
2023/06/24 14:29:16;;;;;;;6.25;2.15;;;;;;;;;;5032521;28;20060;-44
2023/06/24 14:31:43;;;;;;;10.75;2.35;;;;;;;;;;5032651;28;20037;-45
2023/06/24 14:34:10;;;;;;;8.82;2.05;;;;;;;;;;5032441;28;20399;-44
2023/06/24 14:36:37;;;;;;;7.65;2.20;;;;;;;;;;5032449;28;20076;-44
2023/06/24 14:39:04;;;;;;;6.80;2.05;;;;;;;;;;5032518;28;20710;-45
2023/06/24 14:41:31;;;;;;;6.72;1.92;;;;;;;;;;5032420;28;20183;-44